Time;durP1;ratioP1;P1;durP2;ratioP2;P2;SDS_P1;SDS_P2;PMS_P1;PMS_P2;Temp;Humidity;BMP_temperature;BMP_pressure;BME280_temperature;BME280_humidity;BME280_pressure;Samples;Min_cycle;Max_cycle;Signal;HPM_P1;HPM_P2
2022/01/19 00:01:34;;;;;;;14.10;9.10;;;;;;;2.94;88.86;100919.88;4976226;28;20130;-60
2022/01/19 00:04:00;;;;;;;10.38;7.35;;;;;;;2.94;88.86;100919.06;4987274;28;20100;-60
2022/01/19 00:06:25;;;;;;;12.52;8.25;;;;;;;2.94;89.16;100922.53;4991548;28;20605;-61
2022/01/19 00:08:52;;;;;;;12.38;9.00;;;;;;;2.93;88.63;100928.00;4987880;28;20038;-61
2022/01/19 00:11:17;;;;;;;10.77;8.07;;;;;;;2.91;88.50;100932.63;4995626;28;20042;-61
2022/01/19 00:13:43;;;;;;;10.52;7.28;;;;;;;2.96;88.91;100933.81;4984147;28;20026;-62
2022/01/19 00:16:08;;;;;;;11.80;6.55;;;;;;;2.93;88.63;100928.00;4975678;28;20042;-61
2022/01/19 00:18:33;;;;;;;9.10;6.85;;;;;;;2.95;89.09;100932.16;4987143;28;20034;-61
2022/01/19 00:20:59;;;;;;;13.00;7.97;;;;;;;2.95;88.85;100915.44;4994184;28;20112;-61
2022/01/19 00:23:24;;;;;;;12.52;8.82;;;;;;;2.97;88.95;100905.50;4991694;28;20044;-62
2022/01/19 00:25:51;;;;;;;14.30;8.65;;;;;;;2.89;89.83;100889.56;4989169;28;20042;-61
2022/01/19 00:28:17;;;;;;;13.82;8.77;;;;;;;2.94;89.94;100879.34;4994564;28;20224;-62
2022/01/19 00:30:42;;;;;;;6.82;5.03;;;;;;;2.91;88.58;100877.00;4985524;28;20042;-62
2022/01/19 00:33:08;;;;;;;8.27;5.35;;;;;;;2.80;88.24;100873.59;4994635;28;20065;-61
2022/01/19 00:35:35;;;;;;;5.35;3.65;;;;;;;2.83;87.81;100872.47;4985333;28;20176;-61
2022/01/19 00:38:00;;;;;;;7.32;5.10;;;;;;;2.85;88.43;100880.25;4984686;28;20030;-61
2022/01/19 00:40:26;;;;;;;7.13;4.45;;;;;;;2.79;88.48;100879.84;4990190;28;20121;-61
2022/01/19 00:42:52;;;;;;;9.73;6.03;;;;;;;2.80;88.91;100873.59;4991801;28;20026;-61
2022/01/19 00:45:17;;;;;;;7.30;4.63;;;;;;;2.79;88.29;100874.56;4990909;28;20037;-61
2022/01/19 00:47:43;;;;;;;8.48;5.30;;;;;;;2.83;88.41;100884.88;4989962;28;20034;-61
2022/01/19 00:50:10;;;;;;;7.05;4.53;;;;;;;2.86;88.14;100884.56;4989055;28;20046;-61
2022/01/19 00:52:36;;;;;;;6.10;4.70;;;;;;;2.79;88.29;100879.84;4991998;28;20038;-61
2022/01/19 00:55:05;;;;;;;7.80;4.85;;;;;;;2.80;88.77;100876.25;4989798;28;20045;-62
2022/01/19 00:57:31;;;;;;;10.27;5.55;;;;;;;2.85;88.52;100870.50;4983280;28;20030;-61
2022/01/19 00:59:56;;;;;;;5.65;4.30;;;;;;;2.87;89.24;100867.69;4994988;28;20108;-61
2022/01/19 01:02:22;;;;;;;8.55;4.68;;;;;;;2.81;88.77;100859.34;4985226;28;20439;-61
2022/01/19 01:04:47;;;;;;;7.90;4.55;;;;;;;2.77;88.68;100849.22;4987334;28;20034;-61
2022/01/19 01:07:12;;;;;;;7.00;4.47;;;;;;;2.72;88.72;100836.47;4989315;28;20045;-61
2022/01/19 01:09:38;;;;;;;8.68;4.78;;;;;;;2.74;89.06;100837.13;4990781;28;20026;-61
2022/01/19 01:12:13;;;;;;;4.82;3.53;;;;;;;2.70;89.44;100832.31;4995795;28;20415;-61
2022/01/19 01:20:09;;;;;;;5.80;4.35;;;;;;;2.66;89.65;100818.53;4991458;28;20093;-61
2022/01/19 01:22:34;;;;;;;4.28;3.20;;;;;;;2.70;89.93;100817.25;4994415;28;20054;-61
2022/01/19 01:25:00;;;;;;;7.88;5.03;;;;;;;2.72;89.83;100822.38;4991988;28;20026;-61
2022/01/19 01:27:25;;;;;;;8.65;5.07;;;;;;;2.70;89.67;100811.94;4983555;28;20930;-61
2022/01/19 01:29:51;;;;;;;7.68;5.00;;;;;;;2.71;90.34;100802.19;4986709;28;20046;-61
2022/01/19 01:32:16;;;;;;;7.85;5.43;;;;;;;2.75;90.28;100798.25;4984705;28;20050;-61
2022/01/19 01:34:42;;;;;;;5.55;3.92;;;;;;;2.72;89.60;100786.16;4989288;28;20036;-62
2022/01/19 01:37:07;;;;;;;8.43;4.82;;;;;;;2.72;89.34;100785.31;4987899;28;20048;-61
2022/01/19 01:39:32;;;;;;;8.85;4.85;;;;;;;2.68;89.59;100771.56;4989644;28;20041;-61
2022/01/19 01:41:58;;;;;;;7.00;5.13;;;;;;;2.68;89.73;100782.13;4991718;28;20054;-61
2022/01/19 01:44:23;;;;;;;9.05;5.00;;;;;;;2.69;90.24;100789.09;4984005;28;20038;-61
2022/01/19 01:46:54;;;;;;;6.03;4.57;;;;;;;2.69;89.94;100799.69;4983896;28;20050;-61
2022/01/19 01:49:27;;;;;;;;;;;;;;;2.78;89.53;100800.59;4988084;28;20057;-61
2022/01/19 01:54:37;;;;;;;6.72;5.20;;;;;;;2.68;89.88;100813.91;4989433;28;20488;-61
2022/01/19 01:57:02;;;;;;;8.30;5.40;;;;;;;2.75;90.45;100820.25;4988889;28;20488;-61
2022/01/19 01:59:28;;;;;;;5.65;4.28;;;;;;;2.67;90.02;100822.00;4991913;28;20037;-61
2022/01/19 02:01:53;;;;;;;5.15;3.97;;;;;;;2.70;90.05;100811.13;4989749;28;20053;-61
2022/01/19 02:04:23;;;;;;;6.65;4.85;;;;;;;2.68;90.39;100808.63;4986670;28;20034;-61
2022/01/19 02:09:36;;;;;;;6.70;4.50;;;;;;;2.59;90.38;100783.03;4985724;28;20084;-61
2022/01/19 02:23:01;;;;;;;6.55;4.82;;;;;;;2.50;90.19;100752.22;4984092;28;20057;-61
2022/01/19 02:25:30;;;;;;;6.72;4.45;;;;;;;2.59;89.91;100760.03;4987408;28;20463;-62
2022/01/19 02:41:38;;;;;;;7.45;4.43;;;;;;;2.46;90.34;100734.97;4981516;28;20644;-61
2022/01/19 02:44:04;;;;;;;8.80;4.65;;;;;;;2.52;90.11;100726.41;4993941;28;20038;-61
2022/01/19 02:49:16;;;;;;;8.07;5.13;;;;;;;2.49;89.85;100714.31;4982419;28;20034;-61
2022/01/19 02:51:43;;;;;;;7.30;4.80;;;;;;;2.47;90.18;100712.81;4986217;28;20034;-61
2022/01/19 02:54:12;;;;;;;9.32;4.90;;;;;;;2.49;89.83;100708.19;4981830;28;20057;-61
2022/01/19 02:56:40;;;;;;;7.68;4.47;;;;;;;2.43;89.48;100698.22;4982825;28;20042;-61
2022/01/19 02:59:24;;;;;;;9.88;5.60;;;;;;;2.47;89.25;100688.97;4993148;28;20028;-61
2022/01/19 03:09:43;;;;;;;6.68;5.13;;;;;;;2.47;88.11;100667.81;4992456;28;20030;-62
2022/01/19 03:12:09;;;;;;;6.63;4.63;;;;;;;2.43;87.50;100656.72;4990214;28;20046;-61
2022/01/19 03:14:34;;;;;;;7.97;4.70;;;;;;;2.40;87.73;100645.59;4990865;28;20033;-62
2022/01/19 03:17:00;;;;;;;8.27;5.07;;;;;;;2.37;88.77;100642.28;4991539;28;20069;-62
2022/01/19 03:19:27;;;;;;;7.13;5.28;;;;;;;2.41;88.60;100644.63;4989587;28;20038;-62
2022/01/19 03:21:53;;;;;;;7.95;5.30;;;;;;;2.36;88.86;100629.22;4989957;28;20074;-61
2022/01/19 03:24:19;;;;;;;8.73;5.55;;;;;;;2.42;88.56;100633.91;4991034;28;20033;-63
2022/01/19 03:26:44;;;;;;;10.25;5.60;;;;;;;2.46;87.63;100623.81;4995294;28;20049;-62
2022/01/19 03:29:10;;;;;;;7.68;5.60;;;;;;;2.36;87.75;100616.81;4995225;28;20049;-61
2022/01/19 03:31:35;;;;;;;6.13;4.90;;;;;;;2.36;87.00;100621.28;4986602;28;20053;-61
2022/01/19 03:34:01;;;;;;;6.05;4.35;;;;;;;2.36;86.28;100614.16;4993854;28;20431;-61
2022/01/19 03:36:27;;;;;;;9.20;5.57;;;;;;;2.39;86.21;100613.00;4983890;28;20038;-61
2022/01/19 03:38:52;;;;;;;9.82;7.18;;;;;;;2.41;87.15;100615.50;4988231;28;20084;-61
2022/01/19 03:41:17;;;;;;;8.27;5.60;;;;;;;2.33;87.01;100614.47;4988884;28;20046;-61
2022/01/19 03:43:43;;;;;;;7.45;5.25;;;;;;;2.37;86.91;100604.38;4991364;28;20582;-61
2022/01/19 03:46:14;;;;;;;7.80;5.55;;;;;;;2.36;86.56;100598.28;4987438;28;20484;-61
2022/01/19 03:48:51;;;;;;;9.80;7.00;;;;;;;2.37;87.24;100586.72;4989917;28;20032;-61
2022/01/19 03:51:16;;;;;;;6.68;5.32;;;;;;;2.33;85.86;100590.66;4989488;28;20511;-61
2022/01/19 03:53:42;;;;;;;9.27;5.78;;;;;;;2.40;85.85;100582.09;4994270;28;20113;-61
2022/01/19 03:56:07;;;;;;;10.43;7.55;;;;;;;2.32;86.31;100565.19;4991175;28;20501;-61
2022/01/19 03:58:33;;;;;;;7.40;5.72;;;;;;;2.32;86.33;100572.28;4984723;28;20056;-61
2022/01/19 04:00:59;;;;;;;7.03;4.38;;;;;;;2.33;85.65;100566.03;4990443;28;20531;-61
2022/01/19 04:06:27;;;;;;;9.68;6.43;;;;;;;2.35;86.26;100559.59;4975810;28;20303;-61
2022/01/19 04:08:53;;;;;;;12.75;6.75;;;;;;;2.35;86.07;100537.59;4994906;28;20040;-61
2022/01/19 04:11:21;;;;;;;9.80;7.20;;;;;;;2.39;86.44;100544.22;4972340;28;20420;-61
2022/01/19 04:14:21;;;;;;;12.45;6.85;;;;;;;2.37;86.12;100541.75;4989702;28;20121;-61
2022/01/19 04:16:41;;;;;;;11.45;6.88;;;;;;;2.38;85.74;100532.81;4984102;28;20069;-61
2022/01/19 04:19:23;;;;;;;10.80;6.88;;;;;;;2.34;85.62;100512.09;4991897;28;20500;-61
2022/01/19 04:21:51;;;;;;;9.23;6.93;;;;;;;2.27;86.03;100522.50;4995038;28;20041;-61
2022/01/19 04:24:17;;;;;;;9.15;6.18;;;;;;;2.27;86.11;100519.00;4991096;28;20061;-61
2022/01/19 04:26:44;;;;;;;11.13;6.93;;;;;;;2.24;86.05;100511.38;4983168;28;20436;-61
2022/01/19 04:29:09;;;;;;;7.78;5.55;;;;;;;2.19;86.59;100516.31;4992998;28;20022;-61
2022/01/19 04:31:35;;;;;;;11.40;7.18;;;;;;;2.15;87.05;100526.41;4989644;28;20045;-61
2022/01/19 04:34:03;;;;;;;12.32;7.70;;;;;;;2.15;87.61;100529.03;4989107;28;20553;-61
2022/01/19 04:36:59;;;;;;;10.60;7.90;;;;;;;2.15;87.81;100526.41;4990094;28;20107;-61
2022/01/19 05:03:23;;;;;;;13.73;8.85;;;;;;;1.82;91.41;100531.47;4990641;28;20048;-61
2022/01/19 05:05:59;;;;;;;13.00;9.00;;;;;;;1.83;91.22;100533.13;4990983;28;20551;-61
2022/01/19 05:13:38;;;;;;;12.18;8.88;;;;;;;1.77;90.11;100519.66;4983343;28;20330;-61
2022/01/19 05:16:04;;;;;;;14.95;9.25;;;;;;;1.78;90.49;100530.09;4973703;28;20405;-62
2022/01/19 05:18:30;;;;;;;16.75;10.70;;;;;;;1.76;90.45;100521.50;4983104;28;20041;-61
2022/01/19 05:20:55;;;;;;;15.43;10.25;;;;;;;1.77;90.53;100538.19;4990069;28;20043;-62
2022/01/19 05:23:21;;;;;;;13.27;9.25;;;;;;;1.80;91.84;100530.78;4993163;28;20045;-61
2022/01/19 05:25:46;;;;;;;16.58;10.15;;;;;;;1.79;90.62;100531.75;4991688;28;20038;-62
2022/01/19 05:28:12;;;;;;;14.63;10.05;;;;;;;1.80;90.62;100527.28;5005124;28;20033;-63
2022/01/19 05:30:37;;;;;;;14.48;9.35;;;;;;;1.78;90.70;100516.88;4986882;28;20038;-63
2022/01/19 05:33:03;;;;;;;14.73;10.02;;;;;;;1.86;92.24;100522.22;4985075;28;20434;-62
2022/01/19 05:35:29;;;;;;;18.67;10.55;;;;;;;1.88;91.06;100509.69;4983142;28;20034;-62
2022/01/19 05:37:55;;;;;;;15.55;10.38;;;;;;;1.91;90.65;100497.97;4995601;28;20554;-62
2022/01/19 05:40:21;;;;;;;16.98;11.07;;;;;;;1.88;90.79;100488.53;4992614;28;20120;-62
2022/01/19 05:42:48;;;;;;;14.40;9.95;;;;;;;1.80;90.51;100488.50;4984349;28;20034;-62
2022/01/19 05:45:13;;;;;;;16.80;10.15;;;;;;;1.79;90.45;100492.09;4987334;28;20478;-62
2022/01/19 05:47:39;;;;;;;15.48;10.00;;;;;;;1.85;89.67;100488.03;4990245;28;20033;-62
2022/01/19 05:50:05;;;;;;;16.50;11.23;;;;;;;1.84;89.84;100489.81;4982697;28;20041;-62
2022/01/19 05:52:30;;;;;;;16.10;9.60;;;;;;;1.82;88.84;100489.16;4984423;28;20152;-62
2022/01/19 05:54:55;;;;;;;19.88;12.13;;;;;;;1.84;89.27;100489.81;4979860;28;20034;-62
2022/01/19 05:57:21;;;;;;;22.50;13.95;;;;;;;1.81;88.44;100487.50;4989919;28;20057;-62
2022/01/19 05:59:46;;;;;;;22.67;13.25;;;;;;;1.83;88.66;100480.25;4994665;28;20023;-62
2022/01/19 06:02:12;;;;;;;20.40;12.98;;;;;;;1.79;88.55;100478.88;4985846;28;20050;-61
2022/01/19 06:04:38;;;;;;;19.63;13.43;;;;;;;1.73;88.85;100485.63;5003753;28;20022;-61
2022/01/19 06:07:03;;;;;;;21.58;13.13;;;;;;;1.74;88.88;100475.88;4989132;28;20050;-62
2022/01/19 06:09:47;;;;;;;16.42;11.23;;;;;;;1.75;88.66;100472.25;4992079;28;20025;-62
2022/01/19 06:12:13;;;;;;;15.82;9.52;;;;;;;1.73;88.84;100471.59;4984511;28;20037;-62
2022/01/19 06:14:39;;;;;;;20.30;11.65;;;;;;;1.74;88.81;100467.94;4990132;28;20029;-62
2022/01/19 06:17:05;;;;;;;27.45;15.05;;;;;;;1.71;88.79;100455.03;4985942;28;20030;-62
2022/01/19 06:19:31;;;;;;;19.80;13.65;;;;;;;1.69;89.06;100452.53;4992086;28;20030;-62
2022/01/19 06:21:56;;;;;;;20.27;12.60;;;;;;;1.65;89.17;100447.75;4989477;28;20125;-62
2022/01/19 06:24:22;;;;;;;20.52;12.63;;;;;;;1.68;88.96;100450.06;4984991;28;20275;-62
2022/01/19 06:26:47;;;;;;;18.67;12.15;;;;;;;1.66;88.80;100441.47;4985654;28;20034;-62
2022/01/19 06:29:13;;;;;;;22.17;14.02;;;;;;;1.65;89.37;100439.81;4994058;28;20546;-62
2022/01/19 06:31:38;;;;;;;18.75;11.35;;;;;;;1.67;89.20;100433.38;4990859;28;20046;-62
2022/01/19 06:34:04;;;;;;;23.73;12.68;;;;;;;1.68;89.83;100429.75;4992494;28;20042;-62
2022/01/19 06:36:29;;;;;;;20.42;12.55;;;;;;;1.69;89.38;100422.66;4991589;28;20054;-62
2022/01/19 06:38:55;;;;;;;25.13;14.52;;;;;;;1.71;89.04;100423.31;5003889;28;20077;-62
2022/01/19 06:41:20;;;;;;;34.67;17.70;;;;;;;1.70;88.85;100416.41;4986823;28;20603;-62
2022/01/19 06:43:46;;;;;;;27.52;15.23;;;;;;;1.71;88.72;100413.56;4985010;28;20495;-62
2022/01/19 06:46:11;;;;;;;42.35;22.17;;;;;;;1.70;89.91;100405.81;4982345;28;20445;-62
2022/01/19 06:48:36;;;;;;;28.42;16.13;;;;;;;1.75;89.83;100414.09;4994322;28;20482;-62
2022/01/19 06:51:02;;;;;;;24.73;15.15;;;;;;;1.75;88.91;100411.47;4989713;28;20048;-62
2022/01/19 06:53:27;;;;;;;20.42;13.98;;;;;;;1.77;90.11;100409.47;4990788;28;20073;-62
2022/01/19 06:55:57;;;;;;;19.23;8.95;;;;;;;1.67;89.62;100411.41;4986452;28;20144;-62
2022/01/19 06:58:23;;;;;;;17.52;11.60;;;;;;;1.65;89.04;100400.19;4989834;28;20488;-63
2022/01/19 07:00:48;;;;;;;19.52;11.82;;;;;;;1.71;89.27;100410.94;4982503;28;20315;-62
2022/01/19 07:03:14;;;;;;;20.60;11.18;;;;;;;1.74;89.13;100409.78;4972802;28;20285;-62
2022/01/19 07:05:39;;;;;;;21.67;11.75;;;;;;;1.76;88.73;100409.66;4976147;28;20035;-62
2022/01/19 07:08:05;;;;;;;17.75;10.07;;;;;;;1.91;91.60;100403.59;4985899;28;20165;-60
2022/01/19 07:10:31;;;;;;;22.92;11.75;;;;;;;1.77;89.46;100404.19;4989755;28;20038;-62
2022/01/19 07:13:00;;;;;;;18.95;11.68;;;;;;;1.74;89.12;100401.84;4984807;28;20044;-61
2022/01/19 07:15:26;;;;;;;20.88;11.80;;;;;;;1.69;87.73;100404.97;4982686;28;20042;-62
2022/01/19 07:17:51;;;;;;;20.70;8.70;;;;;;;1.71;87.85;100402.19;4995353;28;20442;-62
2022/01/19 07:20:16;;;;;;;19.92;11.63;;;;;;;1.80;88.64;100401.25;4993515;28;20037;-62
2022/01/19 07:22:42;;;;;;;17.27;11.20;;;;;;;1.76;87.93;100394.59;4989846;28;20022;-62
2022/01/19 07:25:08;;;;;;;19.70;11.27;;;;;;;1.84;87.75;100389.34;4983698;28;20042;-62
2022/01/19 07:27:33;;;;;;;18.50;11.52;;;;;;;1.89;88.60;100389.72;4992113;28;20026;-62
2022/01/19 07:29:59;;;;;;;20.40;12.60;;;;;;;1.81;87.66;100380.94;4997648;28;20093;-60
2022/01/19 07:32:29;;;;;;;17.92;9.98;;;;;;;1.72;87.69;100382.69;4985223;28;20256;-62
2022/01/19 07:34:54;;;;;;;23.40;10.75;;;;;;;1.66;88.12;100385.97;4980497;28;20360;-63
2022/01/19 07:37:20;;;;;;;16.55;9.20;;;;;;;1.67;88.22;100371.75;4984926;28;20216;-62
2022/01/19 07:39:45;;;;;;;17.00;10.13;;;;;;;1.66;87.78;100378.03;4987274;28;20408;-63
2022/01/19 07:42:11;;;;;;;20.20;11.20;;;;;;;1.75;88.18;100374.47;4984645;28;20931;-62
2022/01/19 07:44:39;;;;;;;23.98;12.80;;;;;;;1.76;88.53;100373.47;4989534;28;20050;-62
2022/01/19 07:47:05;;;;;;;22.33;12.65;;;;;;;1.68;89.06;100370.78;4987392;28;20058;-62
2022/01/19 07:49:30;;;;;;;21.52;12.15;;;;;;;1.78;88.58;100370.66;4987979;28;20033;-62
2022/01/19 07:51:56;;;;;;;20.08;11.82;;;;;;;1.77;88.53;100364.53;4984406;28;20137;-62
2022/01/19 07:54:21;;;;;;;19.98;10.90;;;;;;;1.68;88.25;100370.78;4993188;28;20425;-62
2022/01/19 07:56:47;;;;;;;20.20;11.00;;;;;;;1.72;88.26;100366.81;4986553;28;20077;-62
2022/01/19 07:59:13;;;;;;;21.25;11.20;;;;;;;1.72;88.97;100358.88;4986048;28;20704;-62
2022/01/19 08:01:39;;;;;;;24.70;13.88;;;;;;;1.71;88.13;100354.59;4993068;28;20098;-62
2022/01/19 08:04:04;;;;;;;17.60;9.50;;;;;;;1.61;88.21;100356.53;4993456;28;20495;-62
2022/01/19 08:06:30;;;;;;;16.70;9.90;;;;;;;1.55;88.03;100350.06;5002441;28;20046;-63
2022/01/19 08:08:55;;;;;;;26.52;11.65;;;;;;;1.80;90.14;100353.66;4991263;28;20488;-63
2022/01/19 08:11:20;;;;;;;23.10;11.75;;;;;;;1.73;88.35;100353.47;4989535;28;20137;-62
2022/01/19 08:13:46;;;;;;;21.05;11.55;;;;;;;1.65;88.54;100349.97;4988531;28;20030;-62
2022/01/19 08:16:11;;;;;;;20.83;12.70;;;;;;;1.65;88.00;100355.25;4993227;28;20421;-62
2022/01/19 08:18:37;;;;;;;20.17;12.45;;;;;;;1.55;88.43;100341.28;4991153;28;20034;-62
2022/01/19 08:21:02;;;;;;;25.40;11.93;;;;;;;1.56;88.29;100341.13;4986671;28;20034;-62
2022/01/19 08:23:28;;;;;;;21.08;11.32;;;;;;;1.49;88.37;100334.81;4994872;28;20065;-62
2022/01/19 08:25:53;;;;;;;23.83;11.88;;;;;;;1.77;89.11;100327.53;4980517;28;20416;-62
2022/01/19 08:28:20;;;;;;;24.70;12.80;;;;;;;1.74;87.76;100319.91;4992002;28;20025;-62
2022/01/19 08:30:46;;;;;;;22.00;12.68;;;;;;;1.50;87.50;100320.66;4984023;28;20643;-62
2022/01/19 08:33:11;;;;;;;20.35;11.80;;;;;;;1.67;87.09;100305.69;4989022;28;20118;-62
2022/01/19 08:35:37;;;;;;;21.52;11.38;;;;;;;1.74;86.34;100312.00;4983620;28;20381;-62
2022/01/19 08:38:03;;;;;;;20.90;11.57;;;;;;;2.14;84.69;100305.19;5017650;28;20034;-62
2022/01/19 08:40:30;;;;;;;18.15;11.93;;;;;;;2.21;84.62;100305.38;4980973;28;20111;-62
2022/01/19 08:42:56;;;;;;;21.75;11.15;;;;;;;2.99;82.14;100315.53;4977972;28;20031;-62
2022/01/19 08:45:22;;;;;;;24.15;10.40;;;;;;;2.18;84.00;100306.53;4973773;28;20077;-62
2022/01/19 08:47:47;;;;;;;20.20;11.18;;;;;;;2.72;82.48;100316.69;4991555;28;20811;-62
2022/01/19 08:50:13;;;;;;;20.27;11.35;;;;;;;3.05;81.58;100312.22;4979339;28;20053;-61
2022/01/19 08:52:39;;;;;;;20.85;11.40;;;;;;;3.63;78.31;100316.41;4980759;28;20061;-61
2022/01/19 08:55:05;;;;;;;18.98;9.73;;;;;;;2.89;80.55;100307.75;4983405;28;20154;-61
2022/01/19 08:57:30;;;;;;;18.27;10.65;;;;;;;2.83;82.41;100312.91;4999280;28;20030;-61
2022/01/19 08:59:58;;;;;;;21.00;10.60;;;;;;;2.28;83.12;100315.16;4976398;28;20548;-61
2022/01/19 09:02:23;;;;;;;20.92;10.48;;;;;;;2.45;84.04;100320.50;4961799;28;20066;-61
2022/01/19 09:04:49;;;;;;;18.27;10.75;;;;;;;2.33;83.41;100314.66;4959519;28;20101;-61
2022/01/19 09:07:14;;;;;;;17.50;9.52;;;;;;;1.84;86.17;100302.13;4979824;28;20182;-62
2022/01/19 09:09:40;;;;;;;12.77;8.18;;;;;;;1.73;86.92;100305.06;4982853;28;20031;-61
2022/01/19 09:12:06;;;;;;;15.82;9.75;;;;;;;1.71;87.28;100301.75;4996189;28;20038;-61
2022/01/19 09:14:31;;;;;;;21.88;11.15;;;;;;;1.66;88.04;100294.28;4985008;28;20023;-61
2022/01/19 09:16:57;;;;;;;20.75;11.88;;;;;;;1.76;88.09;100299.44;4992657;28;20073;-61
2022/01/19 09:19:23;;;;;;;19.10;11.07;;;;;;;1.73;87.82;100294.47;4989230;28;20026;-61
2022/01/19 09:21:48;;;;;;;22.73;11.85;;;;;;;1.81;88.23;100291.03;4986231;28;20042;-62
2022/01/19 09:24:14;;;;;;;18.25;10.50;;;;;;;1.73;88.73;100294.47;4989950;28;20034;-62
2022/01/19 09:26:39;;;;;;;25.20;12.70;;;;;;;1.84;89.42;100304.75;4988696;28;20076;-62
2022/01/19 09:29:05;;;;;;;14.32;8.07;;;;;;;1.81;88.21;100294.50;4979611;28;20026;-61
2022/01/19 09:31:30;;;;;;;18.92;10.68;;;;;;;1.88;88.73;100290.25;4986780;28;20296;-62
2022/01/19 09:34:07;;;;;;;16.60;10.00;;;;;;;1.90;88.05;100284.81;4993043;28;20037;-61
2022/01/19 09:36:35;;;;;;;21.27;10.43;;;;;;;1.92;87.95;100293.38;4994357;28;20052;-62
2022/01/19 09:39:01;;;;;;;18.40;9.68;;;;;;;1.79;87.81;100288.56;4989324;28;20369;-61
2022/01/19 09:41:27;;;;;;;19.42;10.50;;;;;;;1.83;87.79;100289.91;4996171;28;20038;-61
2022/01/19 09:43:52;;;;;;;21.40;10.07;;;;;;;1.98;87.48;100276.06;4987350;28;20390;-62
2022/01/19 09:46:18;;;;;;;17.40;9.27;;;;;;;1.93;87.39;100269.44;4987112;28;20606;-61
2022/01/19 09:48:43;;;;;;;19.13;10.10;;;;;;;2.01;87.04;100271.28;5010874;28;20479;-63
2022/01/19 09:51:09;;;;;;;18.85;10.35;;;;;;;2.20;87.37;100274.59;5007869;28;20061;-63
2022/01/19 09:53:34;;;;;;;17.10;10.30;;;;;;;2.21;86.92;100277.09;4986320;28;20049;-63
2022/01/19 09:56:00;;;;;;;14.80;7.97;;;;;;;2.11;87.12;100277.25;4984724;28;20046;-61
2022/01/19 09:58:25;;;;;;;17.58;10.88;;;;;;;2.18;87.94;100272.16;4991686;28;20060;-61
2022/01/19 10:00:50;;;;;;;23.50;10.55;;;;;;;2.26;86.76;100264.22;4996061;28;20761;-62
2022/01/19 10:03:19;;;;;;;18.50;10.80;;;;;;;2.21;86.88;100261.22;4981702;28;20030;-61
2022/01/19 10:05:59;;;;;;;19.20;10.68;;;;;;;2.32;87.19;100268.88;4986923;28;20058;-61
2022/01/19 10:08:42;;;;;;;22.00;9.55;;;;;;;2.32;86.40;100268.88;4987289;28;20044;-61
2022/01/19 10:11:28;;;;;;;19.85;10.63;;;;;;;2.27;86.92;100260.59;4995062;28;20152;-61
2022/01/19 10:17:01;;;;;;;17.67;9.93;;;;;;;2.18;86.96;100266.03;4994213;28;20043;-62
2022/01/19 10:19:35;;;;;;;19.30;10.15;;;;;;;2.10;87.71;100257.09;4987248;28;20030;-62
2022/01/19 10:22:04;;;;;;;17.27;9.23;;;;;;;2.14;88.07;100249.66;4982966;28;20042;-62
2022/01/19 10:24:56;;;;;;;20.23;10.63;;;;;;;2.01;88.02;100251.94;4980703;28;20107;-61
2022/01/19 10:27:34;;;;;;;19.63;11.05;;;;;;;1.88;88.64;100250.59;4988704;28;20079;-61
2022/01/19 10:30:03;;;;;;;18.33;10.95;;;;;;;2.12;88.23;100246.34;4977105;28;20835;-62
2022/01/19 10:32:29;;;;;;;17.38;11.07;;;;;;;2.02;88.36;100240.38;4982580;28;20065;-62
2022/01/19 10:34:54;;;;;;;24.02;12.27;;;;;;;2.30;89.44;100233.81;4986376;28;20433;-62
2022/01/19 10:37:21;;;;;;;25.90;12.20;;;;;;;2.09;88.65;100226.31;4985576;28;20049;-61
2022/01/19 10:39:51;;;;;;;20.95;11.25;;;;;;;2.11;88.13;100227.00;4986627;28;20034;-61
2022/01/19 10:42:27;;;;;;;22.10;11.68;;;;;;;2.17;88.95;100222.88;4971562;28;20070;-62
2022/01/19 10:45:00;;;;;;;21.48;10.65;;;;;;;2.21;88.68;100226.03;4974821;28;20223;-61
2022/01/19 10:47:47;;;;;;;22.38;11.98;;;;;;;2.26;88.48;100213.94;4978010;28;20045;-62
2022/01/19 10:50:15;;;;;;;29.02;14.80;;;;;;;2.16;87.51;100211.47;4980801;28;20041;-61
2022/01/19 10:52:44;;;;;;;29.90;15.85;;;;;;;2.20;87.50;100211.97;4978409;28;20065;-61
2022/01/19 10:55:31;;;;;;;34.95;14.15;;;;;;;2.28;87.01;100209.31;4974687;28;20043;-62
2022/01/19 10:57:57;;;;;;;35.08;15.20;;;;;;;2.45;85.87;100210.16;4973014;28;20057;-62
2022/01/19 11:00:24;;;;;;;35.20;15.57;;;;;;;2.35;86.96;100199.75;4978687;28;20691;-63
2022/01/19 11:02:54;;;;;;;48.13;15.98;;;;;;;2.31;87.08;100193.13;4979081;28;20177;-63
2022/01/19 11:05:41;;;;;;;37.15;16.23;;;;;;;2.31;88.08;100201.06;4974165;28;20022;-63
2022/01/19 11:08:07;;;;;;;30.17;14.00;;;;;;;2.26;87.43;100200.72;4974098;28;20033;-61
2022/01/19 11:10:32;;;;;;;30.42;15.63;;;;;;;2.33;87.31;100191.16;4973652;28;20374;-61
2022/01/19 11:12:59;;;;;;;40.67;17.67;;;;;;;2.55;87.09;100179.06;4974215;28;20038;-61
2022/01/19 11:15:24;;;;;;;40.30;17.15;;;;;;;2.53;87.16;100174.94;4968813;28;20155;-62
2022/01/19 11:17:49;;;;;;;35.45;16.27;;;;;;;2.42;87.45;100169.97;4972176;28;20485;-62
2022/01/19 11:20:18;;;;;;;38.97;17.92;;;;;;;2.27;87.98;100168.00;4971992;28;20029;-62
2022/01/19 11:23:02;;;;;;;39.65;16.67;;;;;;;2.42;87.77;100157.59;4972021;28;20090;-62
2022/01/19 11:25:36;;;;;;;31.33;11.88;;;;;;;2.12;88.11;100162.53;4968892;28;20054;-63
2022/01/19 11:28:01;;;;;;;40.50;18.00;;;;;;;2.19;88.20;100148.66;4972217;28;20497;-62
2022/01/19 11:30:31;;;;;;;35.05;15.88;;;;;;;2.16;88.54;100147.16;4972819;28;20108;-62
2022/01/19 11:33:15;;;;;;;32.97;15.80;;;;;;;2.33;88.19;100146.16;4975626;28;20528;-62
2022/01/19 11:35:42;;;;;;;33.22;15.20;;;;;;;2.22;88.05;100140.38;4976885;28;20043;-62
2022/01/19 11:38:27;;;;;;;30.98;15.40;;;;;;;2.11;88.17;100152.13;4982931;28;20054;-62
2022/01/19 11:40:53;;;;;;;33.70;15.95;;;;;;;2.26;88.58;100142.53;4973849;28;20099;-63
2022/01/19 11:43:25;;;;;;;35.28;16.17;;;;;;;2.04;89.02;100137.91;4988445;28;20652;-63
2022/01/19 11:45:51;;;;;;;30.15;13.85;;;;;;;2.00;89.52;100126.84;4982902;28;20089;-62
2022/01/19 11:48:21;;;;;;;38.90;15.68;;;;;;;1.91;90.17;100123.34;4984069;28;20046;-61
2022/01/19 11:50:47;;;;;;;;;;;;;;;1.93;90.93;100120.56;4978207;28;20748;-61
2022/01/19 11:53:12;;;;;;;32.50;15.60;;;;;;;1.80;91.00;100126.34;4978284;28;19952;-62
2022/01/19 11:55:39;;;;;;;35.47;16.77;;;;;;;1.72;91.87;100119.22;4982295;28;20731;-61
2022/01/19 11:58:16;;;;;;;37.40;16.35;;;;;;;1.83;91.71;100107.50;4985183;28;20431;-61
2022/01/19 12:00:44;;;;;;;35.67;16.20;;;;;;;1.73;91.52;100104.19;4974518;28;20049;-62
2022/01/19 12:03:21;;;;;;;42.83;17.65;;;;;;;1.75;91.44;100106.63;4983257;28;20095;-61
2022/01/19 12:05:47;;;;;;;33.72;15.55;;;;;;;1.67;91.51;100096.88;4975197;28;20042;-62
2022/01/19 12:08:18;;;;;;;38.00;16.63;;;;;;;1.61;92.63;100103.66;4984010;28;20076;-62
2022/01/19 12:10:46;;;;;;;38.85;15.93;;;;;;;1.55;93.76;100098.19;4975616;28;20046;-62
2022/01/19 12:19:13;;;;;;;29.67;13.52;;;;;;;1.53;93.75;100081.69;4982742;28;20061;-61
2022/01/19 12:21:44;;;;;;;26.23;12.63;;;;;;;1.43;94.04;100082.66;4989755;28;20053;-61
2022/01/19 12:24:13;;;;;;;28.77;12.52;;;;;;;1.26;94.90;100068.59;4991094;28;20125;-61
2022/01/19 12:27:04;;;;;;;26.60;13.10;;;;;;;1.34;95.45;100073.06;4982139;28;20055;-62
2022/01/19 12:29:33;;;;;;;31.30;12.65;;;;;;;1.41;95.58;100066.16;4981268;28;20060;-62
2022/01/19 12:32:00;;;;;;;23.17;10.40;;;;;;;1.29;94.95;100065.63;4983042;28;20126;-61
2022/01/19 12:34:26;;;;;;;26.27;11.25;;;;;;;1.40;95.21;100058.38;4988205;28;20069;-61
2022/01/19 12:36:52;;;;;;;32.00;13.57;;;;;;;1.54;96.00;100059.56;4981985;28;20060;-62
2022/01/19 12:39:28;;;;;;;25.15;12.60;;;;;;;1.48;94.98;100059.22;4983018;28;20038;-62
2022/01/19 12:41:58;;;;;;;22.30;9.32;;;;;;;1.31;94.24;100046.16;4983285;28;20205;-62
2022/01/19 12:44:48;;;;;;;25.83;10.00;;;;;;;1.42;94.92;100044.03;4980325;28;20049;-62
2022/01/19 12:47:28;;;;;;;32.20;13.30;;;;;;;1.26;94.79;100038.72;4983177;28;20038;-63
2022/01/19 12:50:03;;;;;;;25.63;10.90;;;;;;;1.51;95.82;100031.66;4985464;28;20073;-62
2022/01/19 12:52:30;;;;;;;19.73;10.15;;;;;;;1.41;94.67;100012.50;4985622;28;20073;-62
2022/01/19 12:54:56;;;;;;;20.25;10.20;;;;;;;1.34;94.46;100016.78;4979442;28;20034;-62